sensor_id;sensor_type;location;lat;lon;timestamp;temperature;humidity
9776;DHT22;4927;52.472;13.108;2024-03-07T00:00:28;5.90;99.90
9776;DHT22;4927;52.472;13.108;2024-03-07T00:01:31;5.90;99.90
9776;DHT22;4927;52.472;13.108;2024-03-07T00:02:38;5.90;99.90
9776;DHT22;4927;52.472;13.108;2024-03-07T00:03:40;5.90;99.90
9776;DHT22;4927;52.472;13.108;2024-03-07T00:04:46;5.80;99.90
9776;DHT22;4927;52.472;13.108;2024-03-07T00:05:48;5.80;99.90
9776;DHT22;4927;52.472;13.108;2024-03-07T00:06:52;6.00;99.90
9776;DHT22;4927;52.472;13.108;2024-03-07T00:07:56;5.90;99.90
9776;DHT22;4927;52.472;13.108;2024-03-07T00:09:01;5.80;99.90
9776;DHT22;4927;52.472;13.108;2024-03-07T00:10:05;5.80;99.90
9776;DHT22;4927;52.472;13.108;2024-03-07T00:11:09;5.80;99.90
9776;DHT22;4927;52.472;13.108;2024-03-07T00:12:13;5.80;99.90
9776;DHT22;4927;52.472;13.108;2024-03-07T00:13:17;5.80;99.90
9776;DHT22;4927;52.472;13.108;2024-03-07T00:14:20;5.80;99.90
9776;DHT22;4927;52.472;13.108;2024-03-07T00:15:23;5.80;99.90
9776;DHT22;4927;52.472;13.108;2024-03-07T00:16:28;5.80;99.90
9776;DHT22;4927;52.472;13.108;2024-03-07T00:17:31;5.80;99.90
9776;DHT22;4927;52.472;13.108;2024-03-07T00:18:36;5.80;99.90
9776;DHT22;4927;52.472;13.108;2024-03-07T00:19:39;5.80;99.90
9776;DHT22;4927;52.472;13.108;2024-03-07T00:20:43;5.80;99.90
9776;DHT22;4927;52.472;13.108;2024-03-07T00:21:46;5.80;99.90
9776;DHT22;4927;52.472;13.108;2024-03-07T00:22:49;5.80;99.90
9776;DHT22;4927;52.472;13.108;2024-03-07T00:23:51;5.80;99.90
9776;DHT22;4927;52.472;13.108;2024-03-07T00:24:54;5.80;99.90
9776;DHT22;4927;52.472;13.108;2024-03-07T00:25:57;5.80;99.90
9776;DHT22;4927;52.472;13.108;2024-03-07T00:27:00;5.80;99.90
9776;DHT22;4927;52.472;13.108;2024-03-07T00:28:04;5.80;99.90
9776;DHT22;4927;52.472;13.108;2024-03-07T00:29:07;5.80;99.90
9776;DHT22;4927;52.472;13.108;2024-03-07T00:30:10;5.80;99.90
9776;DHT22;4927;52.472;13.108;2024-03-07T00:31:13;5.80;99.90
9776;DHT22;4927;52.472;13.108;2024-03-07T00:32:16;5.80;99.90
9776;DHT22;4927;52.472;13.108;2024-03-07T00:33:18;5.80;99.90
9776;DHT22;4927;52.472;13.108;2024-03-07T00:34:21;5.80;99.90
9776;DHT22;4927;52.472;13.108;2024-03-07T00:35:23;5.70;99.90
9776;DHT22;4927;52.472;13.108;2024-03-07T00:36:26;5.70;99.90
9776;DHT22;4927;52.472;13.108;2024-03-07T00:37:30;5.80;99.90
9776;DHT22;4927;52.472;13.108;2024-03-07T00:38:34;5.70;99.90
9776;DHT22;4927;52.472;13.108;2024-03-07T00:39:37;5.80;99.90
9776;DHT22;4927;52.472;13.108;2024-03-07T00:40:41;5.80;99.90
9776;DHT22;4927;52.472;13.108;2024-03-07T00:41:43;5.80;99.90
9776;DHT22;4927;52.472;13.108;2024-03-07T00:42:46;5.80;99.90
9776;DHT22;4927;52.472;13.108;2024-03-07T00:43:48;5.80;99.90
9776;DHT22;4927;52.472;13.108;2024-03-07T00:44:52;5.80;99.90
9776;DHT22;4927;52.472;13.108;2024-03-07T00:45:54;5.70;99.90
9776;DHT22;4927;52.472;13.108;2024-03-07T00:46:57;5.70;99.90
9776;DHT22;4927;52.472;13.108;2024-03-07T00:48:00;5.70;99.90
9776;DHT22;4927;52.472;13.108;2024-03-07T00:49:04;5.80;99.90
9776;DHT22;4927;52.472;13.108;2024-03-07T00:50:07;5.80;99.90
9776;DHT22;4927;52.472;13.108;2024-03-07T00:51:10;5.70;99.90
9776;DHT22;4927;52.472;13.108;2024-03-07T00:52:13;5.80;99.90
9776;DHT22;4927;52.472;13.108;2024-03-07T00:53:16;5.80;99.90
9776;DHT22;4927;52.472;13.108;2024-03-07T00:54:21;5.80;99.90
9776;DHT22;4927;52.472;13.108;2024-03-07T00:55:23;5.80;99.90
9776;DHT22;4927;52.472;13.108;2024-03-07T00:56:26;5.70;99.90
9776;DHT22;4927;52.472;13.108;2024-03-07T00:57:29;5.80;99.90
9776;DHT22;4927;52.472;13.108;2024-03-07T00:58:33;5.70;99.90
9776;DHT22;4927;52.472;13.108;2024-03-07T00:59:35;5.80;99.90
9776;DHT22;4927;52.472;13.108;2024-03-07T01:00:37;5.80;99.90
9776;DHT22;4927;52.472;13.108;2024-03-07T01:01:40;5.80;99.90
9776;DHT22;4927;52.472;13.108;2024-03-07T01:02:43;5.80;99.90
9776;DHT22;4927;52.472;13.108;2024-03-07T01:03:45;5.70;99.90
9776;DHT22;4927;52.472;13.108;2024-03-07T01:04:48;5.80;99.90
9776;DHT22;4927;52.472;13.108;2024-03-07T01:05:50;5.80;99.90
9776;DHT22;4927;52.472;13.108;2024-03-07T01:06:53;5.80;99.90
9776;DHT22;4927;52.472;13.108;2024-03-07T01:07:55;5.70;99.90
9776;DHT22;4927;52.472;13.108;2024-03-07T01:08:59;5.70;99.90
9776;DHT22;4927;52.472;13.108;2024-03-07T01:10:01;5.70;99.90
9776;DHT22;4927;52.472;13.108;2024-03-07T01:11:05;5.70;99.90
9776;DHT22;4927;52.472;13.108;2024-03-07T01:12:08;5.70;99.90
9776;DHT22;4927;52.472;13.108;2024-03-07T01:13:11;5.70;99.90
9776;DHT22;4927;52.472;13.108;2024-03-07T01:14:14;5.70;99.90
9776;DHT22;4927;52.472;13.108;2024-03-07T01:15:16;5.70;99.90
9776;DHT22;4927;52.472;13.108;2024-03-07T01:16:19;5.70;99.90
9776;DHT22;4927;52.472;13.108;2024-03-07T01:17:21;5.60;99.90
9776;DHT22;4927;52.472;13.108;2024-03-07T01:18:24;5.70;99.90
9776;DHT22;4927;52.472;13.108;2024-03-07T01:19:26;5.60;99.90
9776;DHT22;4927;52.472;13.108;2024-03-07T01:20:29;5.60;99.90
9776;DHT22;4927;52.472;13.108;2024-03-07T01:21:33;5.60;99.90
9776;DHT22;4927;52.472;13.108;2024-03-07T01:22:34;5.60;99.90
9776;DHT22;4927;52.472;13.108;2024-03-07T01:23:37;5.70;99.90
9776;DHT22;4927;52.472;13.108;2024-03-07T01:24:40;5.70;99.90
9776;DHT22;4927;52.472;13.108;2024-03-07T01:25:43;5.60;99.90
9776;DHT22;4927;52.472;13.108;2024-03-07T01:26:46;5.60;99.90
9776;DHT22;4927;52.472;13.108;2024-03-07T01:27:48;5.60;99.90
9776;DHT22;4927;52.472;13.108;2024-03-07T01:28:51;5.60;99.90
9776;DHT22;4927;52.472;13.108;2024-03-07T01:29:54;5.70;99.90
9776;DHT22;4927;52.472;13.108;2024-03-07T01:30:56;5.60;99.90
9776;DHT22;4927;52.472;13.108;2024-03-07T01:31:59;5.60;99.90
9776;DHT22;4927;52.472;13.108;2024-03-07T01:33:02;5.60;99.90
9776;DHT22;4927;52.472;13.108;2024-03-07T01:34:05;5.60;99.90
9776;DHT22;4927;52.472;13.108;2024-03-07T01:35:08;5.60;99.90
9776;DHT22;4927;52.472;13.108;2024-03-07T01:36:10;5.60;99.90
9776;DHT22;4927;52.472;13.108;2024-03-07T01:37:13;5.60;99.90
9776;DHT22;4927;52.472;13.108;2024-03-07T01:38:16;5.60;99.90
9776;DHT22;4927;52.472;13.108;2024-03-07T01:39:19;5.60;99.90
9776;DHT22;4927;52.472;13.108;2024-03-07T01:40:22;5.60;99.90
9776;DHT22;4927;52.472;13.108;2024-03-07T01:41:25;5.60;99.90
9776;DHT22;4927;52.472;13.108;2024-03-07T01:42:27;5.60;99.90
9776;DHT22;4927;52.472;13.108;2024-03-07T01:43:30;5.60;99.90
9776;DHT22;4927;52.472;13.108;2024-03-07T01:44:33;5.70;99.90
9776;DHT22;4927;52.472;13.108;2024-03-07T01:45:35;5.70;99.90
9776;DHT22;4927;52.472;13.108;2024-03-07T01:46:39;5.70;99.90
9776;DHT22;4927;52.472;13.108;2024-03-07T01:47:42;5.70;99.90
9776;DHT22;4927;52.472;13.108;2024-03-07T01:48:45;5.60;99.90
9776;DHT22;4927;52.472;13.108;2024-03-07T01:49:47;5.60;99.90
9776;DHT22;4927;52.472;13.108;2024-03-07T01:50:50;5.70;99.90
9776;DHT22;4927;52.472;13.108;2024-03-07T01:51:53;5.70;99.90
9776;DHT22;4927;52.472;13.108;2024-03-07T01:52:55;5.60;99.90
9776;DHT22;4927;52.472;13.108;2024-03-07T01:53:58;5.60;99.90
9776;DHT22;4927;52.472;13.108;2024-03-07T01:55:00;5.70;99.90
9776;DHT22;4927;52.472;13.108;2024-03-07T01:56:03;5.70;99.90
9776;DHT22;4927;52.472;13.108;2024-03-07T01:57:06;5.70;99.90
9776;DHT22;4927;52.472;13.108;2024-03-07T01:58:09;5.70;99.90
9776;DHT22;4927;52.472;13.108;2024-03-07T01:59:13;5.60;99.90
9776;DHT22;4927;52.472;13.108;2024-03-07T02:00:15;5.70;99.90
9776;DHT22;4927;52.472;13.108;2024-03-07T02:01:18;5.60;99.90
9776;DHT22;4927;52.472;13.108;2024-03-07T02:02:21;5.60;99.90
9776;DHT22;4927;52.472;13.108;2024-03-07T02:03:24;5.60;99.90
9776;DHT22;4927;52.472;13.108;2024-03-07T02:04:26;5.60;99.90
9776;DHT22;4927;52.472;13.108;2024-03-07T02:05:29;5.70;99.90
9776;DHT22;4927;52.472;13.108;2024-03-07T02:06:32;5.60;99.90
9776;DHT22;4927;52.472;13.108;2024-03-07T02:07:34;5.60;99.90
9776;DHT22;4927;52.472;13.108;2024-03-07T02:08:36;5.60;99.90
9776;DHT22;4927;52.472;13.108;2024-03-07T02:09:40;5.60;99.90
9776;DHT22;4927;52.472;13.108;2024-03-07T02:10:42;5.60;99.90
9776;DHT22;4927;52.472;13.108;2024-03-07T02:11:47;5.50;99.90
9776;DHT22;4927;52.472;13.108;2024-03-07T02:12:48;5.50;99.90
9776;DHT22;4927;52.472;13.108;2024-03-07T02:13:51;5.50;99.90
9776;DHT22;4927;52.472;13.108;2024-03-07T02:14:53;5.50;99.90
9776;DHT22;4927;52.472;13.108;2024-03-07T02:15:56;5.40;99.90
9776;DHT22;4927;52.472;13.108;2024-03-07T02:16:59;5.40;99.90
9776;DHT22;4927;52.472;13.108;2024-03-07T02:18:02;5.40;99.90
9776;DHT22;4927;52.472;13.108;2024-03-07T02:19:05;5.40;99.90
9776;DHT22;4927;52.472;13.108;2024-03-07T02:20:09;5.40;99.90
9776;DHT22;4927;52.472;13.108;2024-03-07T02:21:13;5.30;99.90
9776;DHT22;4927;52.472;13.108;2024-03-07T02:22:16;5.30;99.90
9776;DHT22;4927;52.472;13.108;2024-03-07T02:23:18;5.30;99.90
9776;DHT22;4927;52.472;13.108;2024-03-07T02:24:21;5.30;99.90
9776;DHT22;4927;52.472;13.108;2024-03-07T02:25:23;5.30;99.90
9776;DHT22;4927;52.472;13.108;2024-03-07T02:26:26;5.30;99.90
9776;DHT22;4927;52.472;13.108;2024-03-07T02:27:29;5.20;99.90
9776;DHT22;4927;52.472;13.108;2024-03-07T02:28:31;5.20;99.90
9776;DHT22;4927;52.472;13.108;2024-03-07T02:29:34;5.20;99.90
9776;DHT22;4927;52.472;13.108;2024-03-07T02:30:37;5.20;99.90
9776;DHT22;4927;52.472;13.108;2024-03-07T02:31:40;5.20;99.90
9776;DHT22;4927;52.472;13.108;2024-03-07T02:32:42;5.20;99.90
9776;DHT22;4927;52.472;13.108;2024-03-07T02:33:46;5.20;99.90
9776;DHT22;4927;52.472;13.108;2024-03-07T02:34:49;5.20;99.90
9776;DHT22;4927;52.472;13.108;2024-03-07T02:35:51;5.20;99.90
9776;DHT22;4927;52.472;13.108;2024-03-07T02:36:54;5.20;99.90
9776;DHT22;4927;52.472;13.108;2024-03-07T02:37:57;5.20;99.90
9776;DHT22;4927;52.472;13.108;2024-03-07T02:38:59;5.20;99.90
9776;DHT22;4927;52.472;13.108;2024-03-07T02:40:03;5.20;99.90
9776;DHT22;4927;52.472;13.108;2024-03-07T02:41:06;5.20;99.90
9776;DHT22;4927;52.472;13.108;2024-03-07T02:42:09;5.20;99.90
9776;DHT22;4927;52.472;13.108;2024-03-07T02:43:12;5.20;99.90
9776;DHT22;4927;52.472;13.108;2024-03-07T02:44:14;5.20;99.90
9776;DHT22;4927;52.472;13.108;2024-03-07T02:45:16;5.10;99.90
9776;DHT22;4927;52.472;13.108;2024-03-07T02:46:20;5.10;99.90
9776;DHT22;4927;52.472;13.108;2024-03-07T02:47:23;5.10;99.90
9776;DHT22;4927;52.472;13.108;2024-03-07T02:48:25;5.10;99.90
9776;DHT22;4927;52.472;13.108;2024-03-07T02:49:27;5.10;99.90
9776;DHT22;4927;52.472;13.108;2024-03-07T02:50:30;5.10;99.90
9776;DHT22;4927;52.472;13.108;2024-03-07T02:51:32;5.10;99.90
9776;DHT22;4927;52.472;13.108;2024-03-07T02:52:35;5.00;99.90
9776;DHT22;4927;52.472;13.108;2024-03-07T02:53:38;5.00;99.90
9776;DHT22;4927;52.472;13.108;2024-03-07T02:54:40;5.00;99.90
9776;DHT22;4927;52.472;13.108;2024-03-07T02:55:43;5.00;99.90
9776;DHT22;4927;52.472;13.108;2024-03-07T02:56:45;5.00;99.90
9776;DHT22;4927;52.472;13.108;2024-03-07T02:57:48;5.00;99.90
9776;DHT22;4927;52.472;13.108;2024-03-07T02:58:50;5.00;99.90
9776;DHT22;4927;52.472;13.108;2024-03-07T02:59:53;5.00;99.90
9776;DHT22;4927;52.472;13.108;2024-03-07T03:00:58;5.00;99.90
9776;DHT22;4927;52.472;13.108;2024-03-07T03:02:00;4.90;99.90
9776;DHT22;4927;52.472;13.108;2024-03-07T03:03:02;4.90;99.90
9776;DHT22;4927;52.472;13.108;2024-03-07T03:04:06;4.90;99.90
9776;DHT22;4927;52.472;13.108;2024-03-07T03:05:08;4.90;99.90
9776;DHT22;4927;52.472;13.108;2024-03-07T03:06:11;4.80;99.90
9776;DHT22;4927;52.472;13.108;2024-03-07T03:07:13;4.90;99.90
9776;DHT22;4927;52.472;13.108;2024-03-07T03:08:16;4.80;99.90
9776;DHT22;4927;52.472;13.108;2024-03-07T03:09:18;4.80;99.90
9776;DHT22;4927;52.472;13.108;2024-03-07T03:10:22;4.80;99.90
9776;DHT22;4927;52.472;13.108;2024-03-07T03:11:29;4.80;99.90
9776;DHT22;4927;52.472;13.108;2024-03-07T03:12:31;4.80;99.90
9776;DHT22;4927;52.472;13.108;2024-03-07T03:13:34;4.80;99.90
9776;DHT22;4927;52.472;13.108;2024-03-07T03:14:37;4.80;99.90
9776;DHT22;4927;52.472;13.108;2024-03-07T03:15:39;4.80;99.90
9776;DHT22;4927;52.472;13.108;2024-03-07T03:16:42;4.80;99.90
9776;DHT22;4927;52.472;13.108;2024-03-07T03:17:45;4.80;99.90
9776;DHT22;4927;52.472;13.108;2024-03-07T03:18:48;4.80;99.90
9776;DHT22;4927;52.472;13.108;2024-03-07T03:19:50;4.80;99.90
9776;DHT22;4927;52.472;13.108;2024-03-07T03:20:54;4.80;99.90
9776;DHT22;4927;52.472;13.108;2024-03-07T03:21:56;4.80;99.90
9776;DHT22;4927;52.472;13.108;2024-03-07T03:23:00;4.80;99.90
9776;DHT22;4927;52.472;13.108;2024-03-07T03:24:03;4.80;99.90
9776;DHT22;4927;52.472;13.108;2024-03-07T03:25:06;4.80;99.90
9776;DHT22;4927;52.472;13.108;2024-03-07T03:26:08;4.80;99.90
9776;DHT22;4927;52.472;13.108;2024-03-07T03:27:11;4.80;99.90
9776;DHT22;4927;52.472;13.108;2024-03-07T03:28:13;4.90;99.90
9776;DHT22;4927;52.472;13.108;2024-03-07T03:29:15;4.80;99.90
9776;DHT22;4927;52.472;13.108;2024-03-07T03:30:18;4.90;99.90
9776;DHT22;4927;52.472;13.108;2024-03-07T03:31:20;4.90;99.90
9776;DHT22;4927;52.472;13.108;2024-03-07T03:32:23;4.90;99.90
9776;DHT22;4927;52.472;13.108;2024-03-07T03:33:26;4.90;99.90
9776;DHT22;4927;52.472;13.108;2024-03-07T03:34:29;4.90;99.90
9776;DHT22;4927;52.472;13.108;2024-03-07T03:35:32;4.90;99.90
9776;DHT22;4927;52.472;13.108;2024-03-07T03:36:34;4.90;99.90
9776;DHT22;4927;52.472;13.108;2024-03-07T03:37:36;4.90;99.90
9776;DHT22;4927;52.472;13.108;2024-03-07T03:38:39;4.90;99.90
9776;DHT22;4927;52.472;13.108;2024-03-07T03:39:42;4.90;99.90
9776;DHT22;4927;52.472;13.108;2024-03-07T03:40:46;4.90;99.90
9776;DHT22;4927;52.472;13.108;2024-03-07T03:41:48;4.80;99.90
9776;DHT22;4927;52.472;13.108;2024-03-07T03:42:50;4.90;99.90
9776;DHT22;4927;52.472;13.108;2024-03-07T03:43:54;4.90;99.90
9776;DHT22;4927;52.472;13.108;2024-03-07T03:44:56;4.90;99.90
9776;DHT22;4927;52.472;13.108;2024-03-07T03:45:59;4.90;99.90
9776;DHT22;4927;52.472;13.108;2024-03-07T03:47:02;4.90;99.90
9776;DHT22;4927;52.472;13.108;2024-03-07T03:48:05;4.90;99.90
9776;DHT22;4927;52.472;13.108;2024-03-07T03:49:08;4.80;99.90
9776;DHT22;4927;52.472;13.108;2024-03-07T03:50:11;4.80;99.90
9776;DHT22;4927;52.472;13.108;2024-03-07T03:51:13;4.80;99.90
9776;DHT22;4927;52.472;13.108;2024-03-07T03:52:16;4.80;99.90
9776;DHT22;4927;52.472;13.108;2024-03-07T03:53:18;4.80;99.90
9776;DHT22;4927;52.472;13.108;2024-03-07T03:54:21;4.80;99.90
9776;DHT22;4927;52.472;13.108;2024-03-07T03:55:24;4.90;99.90
9776;DHT22;4927;52.472;13.108;2024-03-07T03:56:27;4.90;99.90
9776;DHT22;4927;52.472;13.108;2024-03-07T03:57:29;4.90;99.90
9776;DHT22;4927;52.472;13.108;2024-03-07T03:58:32;4.90;99.90
9776;DHT22;4927;52.472;13.108;2024-03-07T03:59:34;4.90;99.90
9776;DHT22;4927;52.472;13.108;2024-03-07T04:00:37;4.90;99.90
9776;DHT22;4927;52.472;13.108;2024-03-07T04:01:39;4.90;99.90
9776;DHT22;4927;52.472;13.108;2024-03-07T04:02:43;4.90;99.90
9776;DHT22;4927;52.472;13.108;2024-03-07T04:03:45;4.90;99.90
9776;DHT22;4927;52.472;13.108;2024-03-07T04:04:49;4.90;99.90
9776;DHT22;4927;52.472;13.108;2024-03-07T04:05:52;4.90;99.90
9776;DHT22;4927;52.472;13.108;2024-03-07T04:06:55;4.90;99.90
9776;DHT22;4927;52.472;13.108;2024-03-07T04:07:57;4.90;99.90
9776;DHT22;4927;52.472;13.108;2024-03-07T04:09:00;4.90;99.90
9776;DHT22;4927;52.472;13.108;2024-03-07T04:10:04;5.00;99.90
9776;DHT22;4927;52.472;13.108;2024-03-07T04:11:09;4.90;99.90
9776;DHT22;4927;52.472;13.108;2024-03-07T04:12:12;4.90;99.90
9776;DHT22;4927;52.472;13.108;2024-03-07T04:13:14;5.00;99.90
9776;DHT22;4927;52.472;13.108;2024-03-07T04:14:17;5.00;99.90
9776;DHT22;4927;52.472;13.108;2024-03-07T04:15:19;4.90;99.90
9776;DHT22;4927;52.472;13.108;2024-03-07T04:16:22;4.90;99.90
9776;DHT22;4927;52.472;13.108;2024-03-07T04:17:25;4.90;99.90
9776;DHT22;4927;52.472;13.108;2024-03-07T04:18:28;4.90;99.90
9776;DHT22;4927;52.472;13.108;2024-03-07T04:19:31;4.90;99.90
9776;DHT22;4927;52.472;13.108;2024-03-07T04:20:33;4.90;99.90
9776;DHT22;4927;52.472;13.108;2024-03-07T04:21:37;4.90;99.90
9776;DHT22;4927;52.472;13.108;2024-03-07T04:22:39;4.90;99.90
9776;DHT22;4927;52.472;13.108;2024-03-07T04:23:42;4.90;99.90
9776;DHT22;4927;52.472;13.108;2024-03-07T04:24:45;4.90;99.90
9776;DHT22;4927;52.472;13.108;2024-03-07T04:25:47;4.90;99.90
9776;DHT22;4927;52.472;13.108;2024-03-07T04:26:50;4.90;99.90
9776;DHT22;4927;52.472;13.108;2024-03-07T04:27:52;4.90;99.90
9776;DHT22;4927;52.472;13.108;2024-03-07T04:28:55;4.90;99.90
9776;DHT22;4927;52.472;13.108;2024-03-07T04:29:58;4.90;99.90
9776;DHT22;4927;52.472;13.108;2024-03-07T04:31:00;4.90;99.90
9776;DHT22;4927;52.472;13.108;2024-03-07T04:32:03;4.90;99.90
9776;DHT22;4927;52.472;13.108;2024-03-07T04:33:06;4.90;99.90
9776;DHT22;4927;52.472;13.108;2024-03-07T04:34:09;4.90;99.90
9776;DHT22;4927;52.472;13.108;2024-03-07T04:35:12;4.90;99.90
9776;DHT22;4927;52.472;13.108;2024-03-07T04:36:15;4.90;99.90
9776;DHT22;4927;52.472;13.108;2024-03-07T04:37:18;4.90;99.90
9776;DHT22;4927;52.472;13.108;2024-03-07T04:38:21;4.90;99.90
9776;DHT22;4927;52.472;13.108;2024-03-07T04:39:23;4.90;99.90
9776;DHT22;4927;52.472;13.108;2024-03-07T04:40:26;4.80;99.90
9776;DHT22;4927;52.472;13.108;2024-03-07T04:41:29;4.90;99.90
9776;DHT22;4927;52.472;13.108;2024-03-07T04:42:31;4.90;99.90
9776;DHT22;4927;52.472;13.108;2024-03-07T04:43:34;4.80;99.90
9776;DHT22;4927;52.472;13.108;2024-03-07T04:44:36;4.80;99.90
9776;DHT22;4927;52.472;13.108;2024-03-07T04:45:39;4.90;99.90
9776;DHT22;4927;52.472;13.108;2024-03-07T04:46:41;4.80;99.90
9776;DHT22;4927;52.472;13.108;2024-03-07T04:47:44;4.80;99.90
9776;DHT22;4927;52.472;13.108;2024-03-07T04:48:46;4.80;99.90
9776;DHT22;4927;52.472;13.108;2024-03-07T04:49:49;4.80;99.90
9776;DHT22;4927;52.472;13.108;2024-03-07T04:50:51;4.90;99.90
9776;DHT22;4927;52.472;13.108;2024-03-07T04:51:55;4.90;99.90
9776;DHT22;4927;52.472;13.108;2024-03-07T04:52:57;4.80;99.90
9776;DHT22;4927;52.472;13.108;2024-03-07T04:53:59;4.80;99.90
9776;DHT22;4927;52.472;13.108;2024-03-07T04:55:02;4.80;99.90
9776;DHT22;4927;52.472;13.108;2024-03-07T04:56:04;4.80;99.90
9776;DHT22;4927;52.472;13.108;2024-03-07T04:57:07;4.80;99.90
9776;DHT22;4927;52.472;13.108;2024-03-07T04:58:09;4.80;99.90
9776;DHT22;4927;52.472;13.108;2024-03-07T04:59:12;4.80;99.90
9776;DHT22;4927;52.472;13.108;2024-03-07T05:00:15;4.80;99.90
9776;DHT22;4927;52.472;13.108;2024-03-07T05:01:18;4.80;99.90
9776;DHT22;4927;52.472;13.108;2024-03-07T05:02:20;4.80;99.90
9776;DHT22;4927;52.472;13.108;2024-03-07T05:03:22;4.80;99.90
9776;DHT22;4927;52.472;13.108;2024-03-07T05:04:25;4.70;99.90
9776;DHT22;4927;52.472;13.108;2024-03-07T05:05:27;4.80;99.90
9776;DHT22;4927;52.472;13.108;2024-03-07T05:06:30;4.80;99.90
9776;DHT22;4927;52.472;13.108;2024-03-07T05:07:32;4.70;99.90
9776;DHT22;4927;52.472;13.108;2024-03-07T05:08:35;4.70;99.90
9776;DHT22;4927;52.472;13.108;2024-03-07T05:09:37;4.70;99.90
9776;DHT22;4927;52.472;13.108;2024-03-07T05:10:40;4.70;99.90
9776;DHT22;4927;52.472;13.108;2024-03-07T05:11:42;4.70;99.90
9776;DHT22;4927;52.472;13.108;2024-03-07T05:12:45;4.70;99.90
9776;DHT22;4927;52.472;13.108;2024-03-07T05:13:47;4.70;99.90
9776;DHT22;4927;52.472;13.108;2024-03-07T05:14:50;4.70;99.90
9776;DHT22;4927;52.472;13.108;2024-03-07T05:15:53;4.60;99.90
9776;DHT22;4927;52.472;13.108;2024-03-07T05:16:55;4.70;99.90
9776;DHT22;4927;52.472;13.108;2024-03-07T05:18:03;4.60;99.90
9776;DHT22;4927;52.472;13.108;2024-03-07T05:19:06;4.70;99.90
9776;DHT22;4927;52.472;13.108;2024-03-07T05:20:10;4.60;99.90
9776;DHT22;4927;52.472;13.108;2024-03-07T05:21:12;4.60;99.90
9776;DHT22;4927;52.472;13.108;2024-03-07T05:22:21;4.60;99.90
9776;DHT22;4927;52.472;13.108;2024-03-07T05:23:23;4.50;99.90
9776;DHT22;4927;52.472;13.108;2024-03-07T05:24:25;4.50;99.90
9776;DHT22;4927;52.472;13.108;2024-03-07T05:25:28;4.50;99.90
9776;DHT22;4927;52.472;13.108;2024-03-07T05:26:32;4.40;99.90
9776;DHT22;4927;52.472;13.108;2024-03-07T05:27:36;4.40;99.90
9776;DHT22;4927;52.472;13.108;2024-03-07T05:28:38;4.40;99.90
9776;DHT22;4927;52.472;13.108;2024-03-07T05:29:41;4.40;99.90
9776;DHT22;4927;52.472;13.108;2024-03-07T05:30:44;4.30;99.90
9776;DHT22;4927;52.472;13.108;2024-03-07T05:31:47;4.30;99.90
9776;DHT22;4927;52.472;13.108;2024-03-07T05:32:50;4.30;99.90
9776;DHT22;4927;52.472;13.108;2024-03-07T05:33:53;4.20;99.90
9776;DHT22;4927;52.472;13.108;2024-03-07T05:34:55;4.20;99.90
9776;DHT22;4927;52.472;13.108;2024-03-07T05:35:58;4.20;99.90
9776;DHT22;4927;52.472;13.108;2024-03-07T05:37:01;4.20;99.90
9776;DHT22;4927;52.472;13.108;2024-03-07T05:38:04;4.20;99.90
9776;DHT22;4927;52.472;13.108;2024-03-07T05:39:06;4.10;99.90
9776;DHT22;4927;52.472;13.108;2024-03-07T05:40:09;4.10;99.90
9776;DHT22;4927;52.472;13.108;2024-03-07T05:41:12;4.10;99.90
9776;DHT22;4927;52.472;13.108;2024-03-07T05:42:14;4.10;99.90
9776;DHT22;4927;52.472;13.108;2024-03-07T05:43:18;4.10;99.90
9776;DHT22;4927;52.472;13.108;2024-03-07T05:44:20;4.10;99.90
9776;DHT22;4927;52.472;13.108;2024-03-07T05:45:23;4.10;99.90
9776;DHT22;4927;52.472;13.108;2024-03-07T05:46:26;4.00;99.90
9776;DHT22;4927;52.472;13.108;2024-03-07T05:47:29;4.00;99.90
9776;DHT22;4927;52.472;13.108;2024-03-07T05:48:31;4.00;99.90
9776;DHT22;4927;52.472;13.108;2024-03-07T05:49:34;4.00;99.90
9776;DHT22;4927;52.472;13.108;2024-03-07T05:50:36;3.90;99.90
9776;DHT22;4927;52.472;13.108;2024-03-07T05:51:39;3.90;99.90
9776;DHT22;4927;52.472;13.108;2024-03-07T05:52:41;3.90;99.90
9776;DHT22;4927;52.472;13.108;2024-03-07T05:53:43;3.90;99.90
9776;DHT22;4927;52.472;13.108;2024-03-07T05:54:46;3.80;99.90
9776;DHT22;4927;52.472;13.108;2024-03-07T05:55:48;3.80;99.90
9776;DHT22;4927;52.472;13.108;2024-03-07T05:56:51;3.80;99.90
9776;DHT22;4927;52.472;13.108;2024-03-07T05:57:53;3.80;99.90
9776;DHT22;4927;52.472;13.108;2024-03-07T06:00:24;3.80;99.90
9776;DHT22;4927;52.472;13.108;2024-03-07T06:01:27;3.70;99.90
9776;DHT22;4927;52.472;13.108;2024-03-07T06:02:29;3.70;99.90
9776;DHT22;4927;52.472;13.108;2024-03-07T06:03:31;3.70;99.90
9776;DHT22;4927;52.472;13.108;2024-03-07T06:04:34;3.70;99.90
9776;DHT22;4927;52.472;13.108;2024-03-07T06:05:36;3.70;99.90
9776;DHT22;4927;52.472;13.108;2024-03-07T06:06:38;3.70;99.90
9776;DHT22;4927;52.472;13.108;2024-03-07T06:07:41;3.70;99.90
9776;DHT22;4927;52.472;13.108;2024-03-07T06:08:43;3.70;99.90
9776;DHT22;4927;52.472;13.108;2024-03-07T06:09:46;3.60;99.90
9776;DHT22;4927;52.472;13.108;2024-03-07T06:10:48;3.60;99.90
9776;DHT22;4927;52.472;13.108;2024-03-07T06:11:51;3.60;99.90
9776;DHT22;4927;52.472;13.108;2024-03-07T06:12:53;3.60;99.90
9776;DHT22;4927;52.472;13.108;2024-03-07T06:13:55;3.60;99.90
9776;DHT22;4927;52.472;13.108;2024-03-07T06:14:59;3.60;99.90
9776;DHT22;4927;52.472;13.108;2024-03-07T06:16:01;3.60;99.90
9776;DHT22;4927;52.472;13.108;2024-03-07T06:17:04;3.60;99.90
9776;DHT22;4927;52.472;13.108;2024-03-07T06:18:06;3.60;99.90
9776;DHT22;4927;52.472;13.108;2024-03-07T06:19:09;3.60;99.90
9776;DHT22;4927;52.472;13.108;2024-03-07T06:20:12;3.60;99.90
9776;DHT22;4927;52.472;13.108;2024-03-07T06:21:16;3.50;99.90
9776;DHT22;4927;52.472;13.108;2024-03-07T06:22:18;3.50;99.90
9776;DHT22;4927;52.472;13.108;2024-03-07T06:23:20;3.60;99.90
9776;DHT22;4927;52.472;13.108;2024-03-07T06:24:23;3.50;99.90
9776;DHT22;4927;52.472;13.108;2024-03-07T06:25:25;3.50;99.90
9776;DHT22;4927;52.472;13.108;2024-03-07T06:26:34;3.50;99.90
9776;DHT22;4927;52.472;13.108;2024-03-07T06:27:40;3.60;99.90
9776;DHT22;4927;52.472;13.108;2024-03-07T06:28:42;3.60;99.90
9776;DHT22;4927;52.472;13.108;2024-03-07T06:29:44;3.50;99.90
9776;DHT22;4927;52.472;13.108;2024-03-07T06:30:48;3.50;99.90
9776;DHT22;4927;52.472;13.108;2024-03-07T06:31:50;3.50;99.90
9776;DHT22;4927;52.472;13.108;2024-03-07T06:32:53;3.60;99.90
9776;DHT22;4927;52.472;13.108;2024-03-07T06:33:56;3.50;99.90
9776;DHT22;4927;52.472;13.108;2024-03-07T06:34:58;3.60;99.90
9776;DHT22;4927;52.472;13.108;2024-03-07T06:36:00;3.50;99.90
9776;DHT22;4927;52.472;13.108;2024-03-07T06:37:02;3.50;99.90
9776;DHT22;4927;52.472;13.108;2024-03-07T06:38:05;3.60;99.90
9776;DHT22;4927;52.472;13.108;2024-03-07T06:39:08;3.60;99.90
9776;DHT22;4927;52.472;13.108;2024-03-07T06:40:12;3.60;99.90
9776;DHT22;4927;52.472;13.108;2024-03-07T06:41:15;3.60;99.90
9776;DHT22;4927;52.472;13.108;2024-03-07T06:42:18;3.60;99.90
9776;DHT22;4927;52.472;13.108;2024-03-07T06:43:20;3.60;99.90
9776;DHT22;4927;52.472;13.108;2024-03-07T06:44:23;3.70;99.90
9776;DHT22;4927;52.472;13.108;2024-03-07T06:45:25;3.70;99.90
9776;DHT22;4927;52.472;13.108;2024-03-07T06:46:28;3.60;99.90
9776;DHT22;4927;52.472;13.108;2024-03-07T06:47:30;3.70;99.90
9776;DHT22;4927;52.472;13.108;2024-03-07T06:48:33;3.70;99.90
9776;DHT22;4927;52.472;13.108;2024-03-07T06:49:35;3.70;99.90
9776;DHT22;4927;52.472;13.108;2024-03-07T06:50:38;3.70;99.90
9776;DHT22;4927;52.472;13.108;2024-03-07T06:51:40;3.70;99.90